createdAt,value
2023-03-30T00:00:01.129Z,5.97
2023-03-30T00:02:04.285Z,5.23
2023-03-30T00:04:06.815Z,5.87
2023-03-30T00:06:10.580Z,5.10
2023-03-30T00:08:14.477Z,4.93
2023-03-30T00:10:17.997Z,5.67
2023-03-30T00:12:20.838Z,5.80
2023-03-30T00:14:31.711Z,5.27
2023-03-30T00:16:33.823Z,5.60
2023-03-30T00:18:36.786Z,5.37
2023-03-30T00:20:43.132Z,5.90
2023-03-30T00:22:45.802Z,5.87
2023-03-30T00:24:47.885Z,5.53
2023-03-30T00:26:49.958Z,6.60
2023-03-30T00:28:52.300Z,6.37
2023-03-30T00:30:54.392Z,5.67
2023-03-30T00:32:56.440Z,6.90
2023-03-30T00:34:58.589Z,6.17
2023-03-30T00:37:03.578Z,5.60
2023-03-30T00:39:06.946Z,6.00
2023-03-30T00:41:09.436Z,5.53
2023-03-30T00:43:16.511Z,5.37
2023-03-30T00:45:27.870Z,5.30
2023-03-30T00:47:30.693Z,5.67
2023-03-30T00:49:34.726Z,5.37
2023-03-30T00:51:38.871Z,5.00
2023-03-30T00:53:45.685Z,4.87
2023-03-30T00:55:49.548Z,5.07
2023-03-30T00:57:52.542Z,6.03
2023-03-30T00:59:55.448Z,4.27
2023-03-30T01:01:58.903Z,5.10
2023-03-30T01:04:05.601Z,6.00
2023-03-30T01:06:07.859Z,4.90
2023-03-30T01:08:14.168Z,5.70
2023-03-30T01:10:16.440Z,5.50
2023-03-30T01:12:19.568Z,6.53
2023-03-30T01:14:21.689Z,6.00
2023-03-30T01:16:35.941Z,5.83
2023-03-30T01:19:05.340Z,5.90
2023-03-30T01:21:28.248Z,6.40
2023-03-30T01:23:48.791Z,6.97
2023-03-30T01:26:13.382Z,6.07
2023-03-30T01:28:24.279Z,6.20
2023-03-30T01:30:44.883Z,6.80
2023-03-30T01:33:09.541Z,5.30
2023-03-30T01:35:33.470Z,6.27
2023-03-30T01:37:42.371Z,6.07
2023-03-30T01:39:47.678Z,5.67
2023-03-30T01:42:12.414Z,6.00
2023-03-30T01:44:32.436Z,5.50
2023-03-30T01:46:48.483Z,5.13
2023-03-30T01:49:01.758Z,5.57
2023-03-30T01:51:09.254Z,5.93
2023-03-30T01:53:16.172Z,5.53
2023-03-30T01:55:22.647Z,6.03
2023-03-30T01:57:46.586Z,6.07
2023-03-30T02:00:01.429Z,5.80
2023-03-30T02:02:07.249Z,5.47
2023-03-30T02:04:11.165Z,5.83
2023-03-30T02:06:30.435Z,6.07
2023-03-30T02:08:33.362Z,5.90
2023-03-30T02:10:36.326Z,6.50
2023-03-30T02:12:38.751Z,6.90
2023-03-30T02:14:41.997Z,7.00
2023-03-30T02:16:49.634Z,7.70
2023-03-30T02:18:54.803Z,6.67
2023-03-30T02:20:59.372Z,6.90
2023-03-30T02:23:01.918Z,6.63
2023-03-30T02:25:05.524Z,6.63
2023-03-30T02:27:07.950Z,7.37
2023-03-30T02:29:10.110Z,7.40
2023-03-30T02:31:14.197Z,6.20
2023-03-30T02:33:26.172Z,6.30
2023-03-30T02:35:37.323Z,5.80
2023-03-30T02:38:04.229Z,5.87
2023-03-30T02:40:28.735Z,6.20
2023-03-30T02:42:47.410Z,5.50
2023-03-30T02:45:03.486Z,5.70
2023-03-30T02:47:12.612Z,5.90
2023-03-30T02:49:27.006Z,6.83
2023-03-30T02:51:41.336Z,6.80
2023-03-30T02:54:25.342Z,5.90
2023-03-30T02:57:03.248Z,7.40
2023-03-30T02:59:13.611Z,6.93
2023-03-30T03:01:46.007Z,6.80
2023-03-30T03:03:52.109Z,6.80
2023-03-30T03:05:54.918Z,6.03
2023-03-30T03:08:03.908Z,6.50
2023-03-30T03:10:06.830Z,6.60
2023-03-30T03:12:08.850Z,6.30
2023-03-30T03:14:13.036Z,7.27
2023-03-30T03:16:15.542Z,7.47
2023-03-30T03:18:52.983Z,6.90
2023-03-30T03:20:55.312Z,7.10
2023-03-30T03:22:58.767Z,7.57
2023-03-30T03:25:02.653Z,6.70
2023-03-30T03:27:25.171Z,6.03
2023-03-30T03:29:50.393Z,6.60
2023-03-30T03:31:52.796Z,6.70
2023-03-30T03:33:56.769Z,6.63
2023-03-30T03:36:08.995Z,7.03
2023-03-30T03:38:15.568Z,6.60
2023-03-30T03:40:18.230Z,6.20
2023-03-30T03:42:20.369Z,6.40
2023-03-30T03:44:37.707Z,6.13
2023-03-30T03:46:40.191Z,5.80
2023-03-30T03:48:42.666Z,5.80
2023-03-30T03:50:45.853Z,5.70
2023-03-30T03:52:48.370Z,6.93
2023-03-30T03:54:50.552Z,6.30
2023-03-30T03:56:53.013Z,6.40
2023-03-30T03:58:57.466Z,5.47
2023-03-30T04:01:00.912Z,5.73
2023-03-30T04:03:05.135Z,6.40
2023-03-30T04:05:07.737Z,6.57
2023-03-30T04:07:12.185Z,6.40
2023-03-30T04:09:14.791Z,5.67
2023-03-30T04:11:43.856Z,6.87
2023-03-30T04:14:11.336Z,6.17
2023-03-30T04:16:32.132Z,5.73
2023-03-30T04:18:53.085Z,5.87
2023-03-30T04:21:03.292Z,6.10
2023-03-30T04:23:33.886Z,5.80
2023-03-30T04:25:54.450Z,6.20
2023-03-30T04:28:21.910Z,6.30
2023-03-30T04:30:50.857Z,5.53
2023-03-30T04:33:19.379Z,5.60
2023-03-30T04:35:21.561Z,6.90
2023-03-30T04:37:35.900Z,7.40
2023-03-30T04:39:46.898Z,7.00
2023-03-30T04:42:14.203Z,6.93
2023-03-30T04:44:42.474Z,6.83
2023-03-30T04:46:57.185Z,5.80
2023-03-30T04:49:21.524Z,8.80
2023-03-30T04:51:56.186Z,6.10
2023-03-30T04:54:14.608Z,6.50
2023-03-30T04:56:35.343Z,5.80
2023-03-30T04:58:50.407Z,6.60
2023-03-30T05:00:58.194Z,5.83
2023-03-30T05:03:15.882Z,6.27
2023-03-30T05:05:53.313Z,5.97
2023-03-30T05:08:14.019Z,5.70
2023-03-30T05:10:38.080Z,5.60
2023-03-30T05:12:40.674Z,5.80
2023-03-30T05:15:03.017Z,5.77
2023-03-30T05:17:34.783Z,5.73
2023-03-30T05:19:56.413Z,5.80
2023-03-30T05:22:17.068Z,5.10
2023-03-30T05:24:39.602Z,4.90
2023-03-30T05:26:54.114Z,4.80
2023-03-30T05:29:06.782Z,4.90
2023-03-30T05:31:29.047Z,5.60
2023-03-30T05:33:43.992Z,5.30
2023-03-30T05:36:05.452Z,5.47
2023-03-30T05:38:31.856Z,4.87
2023-03-30T05:40:58.427Z,4.60
2023-03-30T05:43:19.405Z,4.97
2023-03-30T05:45:57.653Z,6.10
2023-03-30T05:48:11.043Z,5.57
2023-03-30T05:50:29.933Z,4.43
2023-03-30T05:52:38.603Z,4.60
2023-03-30T05:54:59.210Z,3.97
2023-03-30T05:57:27.382Z,4.17
2023-03-30T05:59:48.326Z,4.03
2023-03-30T06:01:58.647Z,4.20
2023-03-30T06:04:01.840Z,4.20
2023-03-30T06:06:05.802Z,3.37
2023-03-30T06:08:08.683Z,3.73
2023-03-30T06:10:11.757Z,3.60
2023-03-30T06:12:14.262Z,3.93
2023-03-30T06:14:17.301Z,3.80
2023-03-30T06:16:29.819Z,3.40
2023-03-30T06:18:32.622Z,3.80
2023-03-30T06:20:40.949Z,3.70
2023-03-30T06:22:43.936Z,4.17
2023-03-30T06:24:53.352Z,3.97
2023-03-30T06:26:56.886Z,3.80
2023-03-30T06:28:59.137Z,4.27
2023-03-30T06:31:03.292Z,4.10
2023-03-30T06:33:06.725Z,3.70
2023-03-30T06:35:22.246Z,3.20
2023-03-30T06:37:26.141Z,3.67
2023-03-30T06:39:29.994Z,3.43
2023-03-30T06:41:32.439Z,3.40
2023-03-30T06:43:36.756Z,3.47
2023-03-30T06:45:57.232Z,3.67
2023-03-30T06:48:01.475Z,3.00
2023-03-30T06:50:05.054Z,3.50
2023-03-30T06:52:25.626Z,2.97
2023-03-30T06:54:28.287Z,3.43
2023-03-30T06:56:40.071Z,3.00
2023-03-30T06:58:48.387Z,3.20
2023-03-30T07:00:50.758Z,2.90
2023-03-30T07:03:19.895Z,3.57
2023-03-30T07:05:41.055Z,3.13
2023-03-30T07:08:07.862Z,2.80
2023-03-30T07:10:11.972Z,2.90
2023-03-30T07:12:14.774Z,2.97
2023-03-30T07:14:17.147Z,3.50
2023-03-30T07:16:20.487Z,4.87
2023-03-30T07:18:22.801Z,2.97
2023-03-30T07:20:25.255Z,2.60
2023-03-30T07:22:39.303Z,2.70
2023-03-30T07:24:42.114Z,2.77
2023-03-30T07:26:44.381Z,2.50
2023-03-30T07:28:46.921Z,2.90
2023-03-30T07:30:49.821Z,2.30
2023-03-30T07:32:55.548Z,2.57
2023-03-30T07:34:59.281Z,2.50
2023-03-30T07:37:02.132Z,2.67
2023-03-30T07:39:08.237Z,3.00
2023-03-30T07:41:15.718Z,3.10
2023-03-30T07:43:21.909Z,3.57
2023-03-30T07:45:24.565Z,2.60
2023-03-30T07:47:27.476Z,3.37
2023-03-30T07:49:29.857Z,2.63
2023-03-30T07:51:32.125Z,2.87
2023-03-30T07:53:42.225Z,2.80
2023-03-30T07:55:53.207Z,2.73
2023-03-30T07:58:04.651Z,2.63
2023-03-30T08:00:10.173Z,3.07
2023-03-30T08:02:32.840Z,3.10
2023-03-30T08:04:35.652Z,3.13
2023-03-30T08:06:37.988Z,3.50
2023-03-30T08:08:41.281Z,3.53
2023-03-30T08:10:45.117Z,2.80
2023-03-30T08:12:47.325Z,2.83
2023-03-30T08:14:49.596Z,3.77
2023-03-30T08:16:51.874Z,3.10
2023-03-30T08:18:55.011Z,3.50
2023-03-30T08:20:57.362Z,3.10
2023-03-30T08:22:59.794Z,3.57
2023-03-30T08:25:02.100Z,3.17
2023-03-30T08:27:04.529Z,3.37
2023-03-30T08:29:07.216Z,3.57
2023-03-30T08:31:10.864Z,3.70
2023-03-30T08:33:13.781Z,3.93
2023-03-30T08:35:17.095Z,3.77
2023-03-30T08:37:19.532Z,3.90
2023-03-30T08:39:21.907Z,2.93
2023-03-30T08:41:29.657Z,3.13
2023-03-30T08:43:49.041Z,3.90
2023-03-30T08:45:51.885Z,2.80
2023-03-30T08:47:54.588Z,3.53
2023-03-30T08:50:08.609Z,3.60
2023-03-30T08:52:18.370Z,3.40
2023-03-30T08:54:23.247Z,3.53
2023-03-30T08:56:34.705Z,3.03
2023-03-30T08:59:18.743Z,3.50
2023-03-30T09:01:26.881Z,3.47
2023-03-30T09:03:41.392Z,3.50
2023-03-30T09:05:48.946Z,3.33
2023-03-30T09:08:20.235Z,3.40
2023-03-30T09:10:23.293Z,3.10
2023-03-30T09:12:38.880Z,3.20
2023-03-30T09:14:45.728Z,4.00
2023-03-30T09:17:17.848Z,3.93
2023-03-30T09:19:25.747Z,3.50
2023-03-30T09:21:31.298Z,3.40
2023-03-30T09:23:36.115Z,3.70
2023-03-30T09:25:53.570Z,3.63
2023-03-30T09:28:07.197Z,3.27
2023-03-30T09:30:51.510Z,3.87
2023-03-30T09:33:07.818Z,3.33
2023-03-30T09:35:15.038Z,3.13
2023-03-30T09:37:18.961Z,3.40
2023-03-30T09:39:24.284Z,3.67
2023-03-30T09:41:32.700Z,3.50
2023-03-30T09:43:42.008Z,3.13
2023-03-30T09:45:45.327Z,3.63
2023-03-30T09:47:47.621Z,3.40
2023-03-30T09:49:55.698Z,3.70
2023-03-30T09:52:08.294Z,3.23
2023-03-30T09:54:13.968Z,3.80
2023-03-30T09:56:29.323Z,3.93
2023-03-30T09:58:33.498Z,3.50
2023-03-30T10:00:35.839Z,2.97
2023-03-30T10:02:38.202Z,3.67
2023-03-30T10:04:52.804Z,3.10
2023-03-30T10:06:55.237Z,3.43
2023-03-30T10:08:57.655Z,3.50
2023-03-30T10:11:01.303Z,3.97
2023-03-30T10:13:07.133Z,4.00
2023-03-30T10:15:17.015Z,3.30
2023-03-30T10:17:21.474Z,3.50
2023-03-30T10:19:25.086Z,3.40
2023-03-30T10:21:31.482Z,4.60
2023-03-30T10:23:42.831Z,3.83
2023-03-30T10:25:50.177Z,3.37
2023-03-30T10:27:55.921Z,3.10
2023-03-30T10:29:58.368Z,4.00
2023-03-30T10:32:04.260Z,3.50
2023-03-30T10:34:21.545Z,4.23
2023-03-30T10:36:29.121Z,2.90
2023-03-30T10:38:34.875Z,2.90
2023-03-30T10:40:40.978Z,3.73
2023-03-30T10:42:44.176Z,3.30
2023-03-30T10:44:51.369Z,3.40
2023-03-30T10:47:02.304Z,3.10
2023-03-30T10:49:33.502Z,3.43
2023-03-30T10:52:23.970Z,2.93
2023-03-30T10:54:34.090Z,3.13
2023-03-30T10:56:44.857Z,3.80
2023-03-30T10:59:16.668Z,3.60
2023-03-30T11:01:37.301Z,3.53
2023-03-30T11:03:40.789Z,4.03
2023-03-30T11:05:46.313Z,3.00
2023-03-30T11:07:53.386Z,3.97
2023-03-30T11:10:00.062Z,3.27
2023-03-30T11:12:11.141Z,3.87
2023-03-30T11:14:21.712Z,3.67
2023-03-30T11:16:30.563Z,3.17
2023-03-30T11:18:41.345Z,3.53
2023-03-30T11:21:06.440Z,3.40
2023-03-30T11:23:34.827Z,3.70
2023-03-30T11:26:02.124Z,3.03
2023-03-30T11:28:39.928Z,3.10
2023-03-30T11:30:43.920Z,3.63
2023-03-30T11:32:56.363Z,3.03
2023-03-30T11:35:13.010Z,3.23
2023-03-30T11:37:29.746Z,2.93
2023-03-30T11:39:34.578Z,3.10
2023-03-30T11:41:40.407Z,3.00
2023-03-30T11:43:43.916Z,3.53
2023-03-30T11:45:52.297Z,3.60
2023-03-30T11:48:46.521Z,3.43
2023-03-30T11:51:18.698Z,3.07
2023-03-30T11:53:21.143Z,2.97
2023-03-30T11:55:33.033Z,3.67
2023-03-30T11:57:57.602Z,3.53
2023-03-30T12:00:08.914Z,3.37
2023-03-30T12:02:21.617Z,3.20
2023-03-30T12:04:29.686Z,3.40
2023-03-30T12:06:33.536Z,4.10
2023-03-30T12:08:42.572Z,2.80
2023-03-30T12:10:48.768Z,3.80
2023-03-30T12:12:54.035Z,3.20
2023-03-30T12:15:26.836Z,3.17
2023-03-30T12:17:41.468Z,3.30
2023-03-30T12:19:55.994Z,3.50
2023-03-30T12:22:03.449Z,3.50
2023-03-30T12:25:02.723Z,3.40
2023-03-30T12:27:06.903Z,3.27
2023-03-30T12:29:52.630Z,3.87
2023-03-30T12:31:54.786Z,3.10
2023-03-30T12:34:06.891Z,2.90
2023-03-30T12:36:34.171Z,3.03
2023-03-30T12:38:38.952Z,3.20
2023-03-30T12:40:46.356Z,3.50
2023-03-30T12:43:06.046Z,3.17
2023-03-30T12:45:48.159Z,2.70
2023-03-30T12:48:05.234Z,2.93
2023-03-30T12:50:29.183Z,3.20
2023-03-30T12:52:50.378Z,3.00
2023-03-30T12:55:01.373Z,2.70
2023-03-30T12:57:28.226Z,3.20
2023-03-30T12:59:39.829Z,3.37
2023-03-30T13:02:17.423Z,2.80
2023-03-30T13:04:24.640Z,2.80
2023-03-30T13:06:37.801Z,3.03
2023-03-30T13:08:42.318Z,2.93
2023-03-30T13:10:44.585Z,3.10
2023-03-30T13:12:49.638Z,3.00
2023-03-30T13:15:08.710Z,2.73
2023-03-30T13:17:15.161Z,2.80
2023-03-30T13:19:27.940Z,2.60
2023-03-30T13:21:47.750Z,3.03
2023-03-30T13:24:24.132Z,2.80
2023-03-30T13:26:34.972Z,2.60
2023-03-30T13:28:55.186Z,2.57
2023-03-30T13:31:06.653Z,2.80
2023-03-30T13:33:12.519Z,2.80
2023-03-30T13:35:31.299Z,2.37
2023-03-30T13:37:46.005Z,3.10
2023-03-30T13:39:58.001Z,2.90
2023-03-30T13:42:16.617Z,2.23
2023-03-30T13:44:27.728Z,2.00
2023-03-30T13:46:38.723Z,2.10
2023-03-30T13:49:18.201Z,2.70
2023-03-30T13:51:25.486Z,2.20
2023-03-30T13:53:30.849Z,2.10
2023-03-30T13:55:36.811Z,2.17
2023-03-30T13:57:40.394Z,2.30
2023-03-30T13:59:56.583Z,2.33
2023-03-30T14:02:01.027Z,2.20
2023-03-30T14:04:04.736Z,2.40
2023-03-30T14:06:16.880Z,2.83
2023-03-30T14:08:19.526Z,3.10
2023-03-30T14:10:22.315Z,2.90
2023-03-30T14:12:24.480Z,2.60
2023-03-30T14:14:29.790Z,2.97
2023-03-30T14:16:37.304Z,2.73
2023-03-30T14:18:39.586Z,2.90
2023-03-30T14:20:50.414Z,3.33
2023-03-30T14:22:54.879Z,2.70
2023-03-30T14:24:59.625Z,2.20
2023-03-30T14:27:22.007Z,3.00
2023-03-30T14:29:31.324Z,3.30
2023-03-30T14:31:42.325Z,3.80
2023-03-30T14:33:45.692Z,2.90
2023-03-30T14:35:53.546Z,2.40
2023-03-30T14:38:01.189Z,2.73
2023-03-30T14:40:15.691Z,3.37
2023-03-30T14:42:20.214Z,2.87
2023-03-30T14:44:24.121Z,2.20
2023-03-30T14:46:32.380Z,2.23
2023-03-30T14:48:41.593Z,2.17
2023-03-30T14:50:45.093Z,1.80
2023-03-30T14:52:47.787Z,2.27
2023-03-30T14:55:05.249Z,2.30
2023-03-30T14:57:11.192Z,2.50
2023-03-30T14:59:13.733Z,2.20
2023-03-30T15:01:31.054Z,2.67
2023-03-30T15:03:37.220Z,2.13
2023-03-30T15:05:42.986Z,2.57
2023-03-30T15:07:49.538Z,3.27
2023-03-30T15:09:59.590Z,3.03
2023-03-30T15:12:03.262Z,2.53
2023-03-30T15:14:10.198Z,2.10
2023-03-30T15:16:16.406Z,2.10
2023-03-30T15:18:21.837Z,1.90
2023-03-30T15:20:29.142Z,2.07
2023-03-30T15:22:35.178Z,3.03
2023-03-30T15:24:38.268Z,1.87
2023-03-30T15:26:45.020Z,3.77
2023-03-30T15:28:51.047Z,1.90
2023-03-30T15:30:53.592Z,2.10
2023-03-30T15:32:57.196Z,2.30
2023-03-30T15:35:22.428Z,2.10
2023-03-30T15:37:24.558Z,2.10
2023-03-30T15:39:33.967Z,2.20
2023-03-30T15:41:49.617Z,2.17
2023-03-30T15:43:55.741Z,1.93
2023-03-30T15:46:14.102Z,2.20
2023-03-30T15:48:41.484Z,2.33
2023-03-30T15:50:49.802Z,1.70
2023-03-30T15:52:59.805Z,2.30
2023-03-30T15:55:18.999Z,2.53
2023-03-30T15:57:28.904Z,2.57
2023-03-30T15:59:51.301Z,2.20
2023-03-30T16:01:57.817Z,2.37
2023-03-30T16:04:01.505Z,2.30
2023-03-30T16:06:03.789Z,2.63
2023-03-30T16:08:06.221Z,2.50
2023-03-30T16:10:24.607Z,2.13
2023-03-30T16:12:28.893Z,3.00
2023-03-30T16:14:31.403Z,2.33
2023-03-30T16:16:34.639Z,2.30
2023-03-30T16:18:37.451Z,2.50
2023-03-30T16:20:39.666Z,2.13
2023-03-30T16:22:41.836Z,2.70
2023-03-30T16:24:44.333Z,2.80
2023-03-30T16:26:46.924Z,2.23
2023-03-30T16:28:53.984Z,2.50
2023-03-30T16:30:58.332Z,2.77
2023-03-30T16:33:01.501Z,2.67
2023-03-30T16:35:04.124Z,2.83
2023-03-30T16:37:06.641Z,2.30
2023-03-30T16:39:20.354Z,2.63
2023-03-30T16:41:23.458Z,2.97
2023-03-30T16:43:27.285Z,3.10
2023-03-30T16:45:29.879Z,2.80
2023-03-30T16:47:32.084Z,3.20
2023-03-30T16:49:34.272Z,2.97
2023-03-30T16:51:39.145Z,2.90
2023-03-30T16:53:41.998Z,3.03
2023-03-30T16:55:44.350Z,4.13
2023-03-30T16:57:46.781Z,3.67
2023-03-30T16:59:48.998Z,3.73
2023-03-30T17:01:51.858Z,3.20
2023-03-30T17:03:54.238Z,2.43
2023-03-30T17:05:56.409Z,2.30
2023-03-30T17:08:21.635Z,2.30
2023-03-30T17:10:29.336Z,3.10
2023-03-30T17:12:31.483Z,4.00
2023-03-30T17:14:33.722Z,5.97
2023-03-30T17:16:36.586Z,3.40
2023-03-30T17:18:38.829Z,4.50
2023-03-30T17:20:51.130Z,11.27
2023-03-30T17:22:53.435Z,12.00
2023-03-30T17:24:55.679Z,3.57
2023-03-30T17:26:58.179Z,3.53
2023-03-30T17:29:00.574Z,3.47
2023-03-30T17:31:04.478Z,3.50
2023-03-30T17:33:12.826Z,3.57
2023-03-30T17:35:15.840Z,4.00
2023-03-30T17:37:17.815Z,4.00
2023-03-30T17:39:19.887Z,5.03
2023-03-30T17:41:22.047Z,3.77
2023-03-30T17:43:24.095Z,4.10
2023-03-30T17:45:29.286Z,4.70
2023-03-30T17:47:31.424Z,4.53
2023-03-30T17:49:33.477Z,4.00
2023-03-30T17:51:35.691Z,3.37
2023-03-30T17:53:38.051Z,4.20
2023-03-30T17:55:40.739Z,3.80
2023-03-30T17:57:42.923Z,3.30
2023-03-30T17:59:45.087Z,3.13
2023-03-30T18:01:47.171Z,5.30
2023-03-30T18:03:49.276Z,5.20
2023-03-30T18:05:51.915Z,5.90
2023-03-30T18:07:54.171Z,4.70
2023-03-30T18:09:56.488Z,5.67
2023-03-30T18:11:58.493Z,5.07
2023-03-30T18:14:01.064Z,3.60
2023-03-30T18:16:03.158Z,4.47
2023-03-30T18:18:05.385Z,4.00
2023-03-30T18:20:17.285Z,3.43
2023-03-30T18:22:19.246Z,3.60
2023-03-30T18:24:21.230Z,3.90
2023-03-30T18:26:23.326Z,3.97
2023-03-30T18:28:27.470Z,3.27
2023-03-30T18:30:33.526Z,3.70
2023-03-30T18:32:46.638Z,3.17
2023-03-30T18:34:49.631Z,3.67
2023-03-30T18:36:51.760Z,3.10
2023-03-30T18:38:55.205Z,3.40
2023-03-30T18:41:01.385Z,4.30
2023-03-30T18:43:04.659Z,6.63
2023-03-30T18:45:06.926Z,7.70
2023-03-30T18:47:09.467Z,6.33
2023-03-30T18:49:14.459Z,10.73
2023-03-30T18:51:16.463Z,12.20
2023-03-30T18:53:23.690Z,9.10
2023-03-30T18:55:25.977Z,7.97
2023-03-30T18:57:28.077Z,5.50
2023-03-30T18:59:30.058Z,6.80
2023-03-30T19:01:32.979Z,7.97
2023-03-30T19:03:35.168Z,5.90
2023-03-30T19:05:39.150Z,7.20
2023-03-30T19:07:41.153Z,7.53
2023-03-30T19:09:45.280Z,6.90
2023-03-30T19:11:47.345Z,6.47
2023-03-30T19:13:50.044Z,6.20
2023-03-30T19:15:52.638Z,5.50
2023-03-30T19:17:55.184Z,5.60
2023-03-30T19:19:57.254Z,5.07
2023-03-30T19:21:59.469Z,7.93
2023-03-30T19:24:01.397Z,30.77
2023-03-30T19:26:03.495Z,21.43
2023-03-30T19:28:06.366Z,8.93
2023-03-30T19:30:10.836Z,6.37
2023-03-30T19:32:14.284Z,6.33
2023-03-30T19:34:16.263Z,6.13
2023-03-30T19:36:18.218Z,5.07
2023-03-30T19:38:20.321Z,6.00
2023-03-30T19:40:22.861Z,6.83
2023-03-30T19:42:26.609Z,5.57
2023-03-30T19:44:28.753Z,6.90
2023-03-30T19:46:30.827Z,5.17
2023-03-30T19:48:32.934Z,4.73
2023-03-30T19:50:34.925Z,4.07
2023-03-30T19:52:38.519Z,3.53
2023-03-30T19:54:40.493Z,3.67
2023-03-30T19:56:42.630Z,4.20
2023-03-30T19:58:44.571Z,3.60
2023-03-30T20:00:47.155Z,3.03
2023-03-30T20:02:51.427Z,3.70
2023-03-30T20:04:53.742Z,3.53
2023-03-30T20:06:56.262Z,5.07
2023-03-30T20:08:58.296Z,4.37
2023-03-30T20:11:00.323Z,4.87
2023-03-30T20:13:02.356Z,4.00
2023-03-30T20:15:06.449Z,2.73
2023-03-30T20:17:11.585Z,3.00
2023-03-30T20:19:28.503Z,3.53
2023-03-30T20:21:32.684Z,3.70
2023-03-30T20:23:34.723Z,3.87
2023-03-30T20:25:36.745Z,4.10
2023-03-30T20:27:38.857Z,3.30
2023-03-30T20:29:40.919Z,2.83
2023-03-30T20:31:43.150Z,3.20
2023-03-30T20:33:45.443Z,3.20
2023-03-30T20:35:51.446Z,3.87
2023-03-30T20:37:53.544Z,3.80
2023-03-30T20:40:03.748Z,2.80
2023-03-30T20:42:08.499Z,3.07
2023-03-30T20:44:13.932Z,2.70
2023-03-30T20:46:18.383Z,6.47
2023-03-30T20:48:26.690Z,6.33
2023-03-30T20:50:28.815Z,6.37
2023-03-30T20:52:31.034Z,6.30
2023-03-30T20:54:33.016Z,5.53
2023-03-30T20:56:35.045Z,4.70
2023-03-30T20:58:38.123Z,5.43
2023-03-30T21:00:40.249Z,7.50
2023-03-30T21:02:42.448Z,4.23
2023-03-30T21:04:45.011Z,2.67
2023-03-30T21:06:47.649Z,3.50
2023-03-30T21:08:51.243Z,2.60
2023-03-30T21:10:53.349Z,2.63
2023-03-30T21:12:55.347Z,3.00
2023-03-30T21:14:57.384Z,2.30
2023-03-30T21:16:59.450Z,2.33
2023-03-30T21:19:01.543Z,2.40
2023-03-30T21:21:04.074Z,2.23
2023-03-30T21:23:06.279Z,2.23
2023-03-30T21:25:09.039Z,2.10
2023-03-30T21:27:11.306Z,2.50
2023-03-30T21:29:13.516Z,2.33
2023-03-30T21:31:16.984Z,2.80
2023-03-30T21:33:19.128Z,2.53
2023-03-30T21:35:21.091Z,2.67
2023-03-30T21:37:23.054Z,4.53
2023-03-30T21:39:25.204Z,3.33
2023-03-30T21:41:28.807Z,3.00
2023-03-30T21:43:33.210Z,2.47
2023-03-30T21:45:35.261Z,3.40
2023-03-30T21:47:37.746Z,2.73
2023-03-30T21:49:39.862Z,2.17
2023-03-30T21:51:41.903Z,2.17
2023-03-30T21:53:46.025Z,2.87
2023-03-30T21:55:48.138Z,2.43
2023-03-30T21:57:50.230Z,2.90
2023-03-30T21:59:52.242Z,2.87
2023-03-30T22:01:54.231Z,2.20
2023-03-30T22:03:56.566Z,2.47
2023-03-30T22:06:00.342Z,2.10
2023-03-30T22:08:02.453Z,2.10
2023-03-30T22:10:04.698Z,2.30
2023-03-30T22:12:06.851Z,2.10
2023-03-30T22:14:09.137Z,2.70
2023-03-30T22:16:14.781Z,1.90
2023-03-30T22:18:16.839Z,2.20
2023-03-30T22:20:18.919Z,2.50
2023-03-30T22:22:21.047Z,2.27
2023-03-30T22:24:23.042Z,2.40
2023-03-30T22:26:25.008Z,2.30
2023-03-30T22:28:27.217Z,2.67
2023-03-30T22:30:29.236Z,2.30
2023-03-30T22:32:34.210Z,2.73
2023-03-30T22:34:36.914Z,2.37
2023-03-30T22:36:39.510Z,2.40
2023-03-30T22:38:41.512Z,2.10
2023-03-30T22:40:43.766Z,2.57
2023-03-30T22:42:46.024Z,2.30
2023-03-30T22:44:48.162Z,2.30
2023-03-30T22:46:50.450Z,2.37
2023-03-30T22:48:55.313Z,2.40
2023-03-30T22:50:58.641Z,2.13
2023-03-30T22:53:00.881Z,2.77
2023-03-30T22:55:03.282Z,3.03
2023-03-30T22:57:05.590Z,2.00
2023-03-30T22:59:07.704Z,2.80
2023-03-30T23:01:10.585Z,2.37
2023-03-30T23:03:12.767Z,2.40
2023-03-30T23:05:15.175Z,2.10
2023-03-30T23:07:17.444Z,2.63
2023-03-30T23:09:21.562Z,2.20
2023-03-30T23:11:23.757Z,1.80
2023-03-30T23:13:26.029Z,2.20
2023-03-30T23:15:29.295Z,2.00
2023-03-30T23:17:31.683Z,2.20
2023-03-30T23:19:36.530Z,1.97
2023-03-30T23:21:38.619Z,1.90
2023-03-30T23:23:41.123Z,2.40
2023-03-30T23:25:50.625Z,2.10
2023-03-30T23:27:52.587Z,1.70
2023-03-30T23:29:54.617Z,2.10
2023-03-30T23:31:56.709Z,2.40
2023-03-30T23:33:58.697Z,1.60
2023-03-30T23:36:01.278Z,1.70
2023-03-30T23:38:04.211Z,2.40
2023-03-30T23:40:07.431Z,1.83
2023-03-30T23:42:09.482Z,2.30
2023-03-30T23:44:11.513Z,2.17
2023-03-30T23:46:14.054Z,1.83
2023-03-30T23:48:16.183Z,2.10
2023-03-30T23:50:18.198Z,3.33
2023-03-30T23:52:20.624Z,1.90
2023-03-30T23:54:23.315Z,1.87
2023-03-30T23:56:27.824Z,1.77
2023-03-30T23:58:29.897Z,2.00
